Terminal Aerodrome Forecast
Issued by NWS Louisville, KY

Home | Current Version | Previous Version | Text Only | Print | Product List | Glossary On
Versions: 1 2 3 4 5 6 7 8 9 10 11 12 13
000
FTUS43 KLMK 232320
TAFLEX
TAF
KLEX 232320Z 2400/2424 27008KT P6SM FEW035 BKN250
     FM240200 VRB04KT P6SM FEW040 SCT250
     FM240900 VRB03KT 3SM BR FEW045 SCT130
     FM241400 26008KT P6SM FEW040 SCT250 PROB30 2419/2424 3SM -TSRA
      BKN040CB=

USA.gov is the U.S. government's official web portal to all federal, state and local government web resources and services.